Tiempo atmosférico en la estación meteorológica de Josa i Tuixén, Lleida (1190 m.)



Fecha
DESCASC
Temp. máxima en grados centígrados (hora)
DESCASC
Temp. mínima en grados centígrados (hora)
DESCASC
Temp. media en grados centígrados
DESCASC
Racha de viento máxima en m/sg (hora)
DESCASC
Velocidad máxima media en intervalos de 10 minutos(hora)
DESCASC
Precipitaciones diarias en mm
DESCASC
Precipitaciones de 00:00 a 06:00 en mm
DESCASC
Precipitaciones de 06:00 a 12:00 en mm
DESCASC
Precipitaciones de 12:00 a 18:00 en mm
DESCASC
Precipitaciones de 18:00 a 24:00 en mm
DESCASC

Gráficas

Temp. máximas Temp. mínimas Temp. medias Precipitaciones Rachas de viento máximas Velocidades máximas media en intervalos de 10 minutos

Datos horarios

Fecha y hora oficial Temperatura (ºC) Velocidad del viento (km/h) Dirección del viento Racha (km/h) Dirección de racha Precipitación (mm) Presión (hPa) Tendencia (hPa) Humedad (%)
2019-04-17 23:00:00 8.7 2 Sudoeste 5 Este 0 -- -- 87
2019-04-17 22:00:00 9.6 0 Calma 7 Este 0 -- -- 84
2019-04-17 21:00:00 11.3 0 Calma 12 Sur 0 -- -- 78
2019-04-17 20:00:00 13.5 7 Sudoeste 15 Sudoeste 0 -- -- 68
2019-04-17 19:00:00 15.3 7 Sudoeste 17 Oeste 0 -- -- 62
2019-04-17 18:00:00 16.1 12 Sudoeste 23 Sudoeste 0 -- -- 59
2019-04-17 17:00:00 17.3 11 Oeste 21 Sudoeste 0 -- -- 55
2019-04-17 16:00:00 16.4 13 Sudoeste 19 Oeste 0 -- -- 57
2019-04-17 15:00:00 16.3 9 Sudoeste 19 Sudoeste 0 -- -- 55
2019-04-17 14:00:00 15.7 15 Sudoeste 28 Oeste 0 -- -- 57
2019-04-17 13:00:00 16.3 14 Oeste 24 Noroeste 0 -- -- 54
2019-04-17 12:00:00 14.4 5 Noroeste 12 Noroeste 0 -- -- 58
2019-04-17 11:00:00 11.9 3 Noroeste 11 Norte 0 -- -- 63
2019-04-17 10:00:00 8.5 2 Sudoeste 6 Sur 0 -- -- 81
2019-04-17 09:00:00 4.5 2 Sur 5 Este 0 -- -- 96
2019-04-17 08:00:00 4.7 2 Sudoeste 4 Sur 0 -- -- 95
2019-04-17 07:00:00 5.5 0 Calma 4 Este 0 -- -- 96
2019-04-17 06:00:00 5.6 0 Calma 4 Nordeste 0 -- -- 96
2019-04-17 05:00:00 5.3 2 Oeste 4 Oeste 0 -- -- 95
2019-04-17 04:00:00 5.2 0 Calma 3 Sudoeste 0 -- -- 97
2019-04-17 03:00:00 4.6 2 Sudoeste 3 Sudoeste 0 -- -- 96
2019-04-17 02:00:00 5 2 Sudoeste 5 Sur 0 -- -- 94
2019-04-17 01:00:00 6.7 2 Sur 10 Sudoeste 0 -- -- 87
2019-04-17 00:00:00 8 5 Sudoeste 12 Sudoeste 0 -- -- 84
2019-04-16 23:00:00 8.5 4 Oeste 9 Sudoeste 0 -- -- 82
2019-04-16 22:00:00 8.8 6 Sudoeste 16 Oeste 0 -- -- 79
2019-04-16 21:00:00 9.2 5 Sudoeste 18 Sudoeste 0 -- -- 74
2019-04-16 20:00:00 10 3 Sur 19 Sudoeste 0 -- -- 70
2019-04-16 19:00:00 10.5 12 Oeste 27 Sudoeste 0 -- -- 70
2019-04-16 18:00:00 11.4 16 Sudoeste 27 Sudoeste 0 -- -- 65
2019-04-16 17:00:00 12.4 16 Oeste 27 Oeste 0 -- -- 67
2019-04-16 16:00:00 11.1 11 Sudoeste 20 Sudoeste 0 -- -- 71
2019-04-16 15:00:00 9.5 13 Sudoeste 21 Sudoeste 0 -- -- 75
2019-04-16 14:00:00 9.7 12 Oeste 24 Oeste 0 -- -- 74
2019-04-16 13:00:00 9 10 Oeste 17 Sudoeste 0 -- -- 83
2019-04-16 12:00:00 7.9 0 Calma 7 Noroeste 0 -- -- 88
2019-04-16 11:00:00 7.6 2 Nordeste 6 Nordeste 0 -- -- 89
2019-04-16 10:00:00 6.7 0 Calma 5 Sudoeste 0 -- -- 95
2019-04-16 09:00:00 5.6 3 Oeste 6 Sur 0 -- -- 100
2019-04-16 08:00:00 5 0 Calma 5 Oeste 0 -- -- 100
2019-04-16 07:00:00 4.8 2 Este 5 Este 0 -- -- 100
2019-04-16 06:00:00 4.7 4 Nordeste 6 Este 0 -- -- 100
2019-04-16 05:00:00 4.5 4 Oeste 8 Norte 0 -- -- 100
2019-04-16 04:00:00 4.6 6 Sudoeste 10 Sur 0 -- -- 98
2019-04-16 03:00:00 5.1 7 Sudoeste 15 Sur 2 -- -- 96
2019-04-16 02:00:00 5.4 3 Sudoeste 27 Nordeste 3.6 -- -- 94
2019-04-16 01:00:00 6.6 12 Nordeste 36 Norte 3.8 -- -- 92
2019-04-16 00:00:00 6.9 5 Nordeste 22 Norte 0.2 -- -- 83
2019-04-15 23:00:00 8.1 11 Nordeste 26 Nordeste 0 -- -- 77
2019-04-15 22:00:00 8.6 0 Calma 22 Sudoeste 0 -- -- 78
2019-04-15 21:00:00 9.1 11 Sudoeste 19 Sudoeste 0 -- -- 75
2019-04-15 20:00:00 10.6 10 Sudoeste 23 Sudoeste 0 -- -- 72
2019-04-15 19:00:00 12.9 10 Sudoeste 19 Sudoeste 0 -- -- 65
2019-04-15 18:00:00 13.6 10 Sudoeste 23 Sudoeste 0 -- -- 63
2019-04-15 17:00:00 14.5 15 Sudoeste 23 Sudoeste 0 -- -- 60
2019-04-15 16:00:00 15.3 12 Oeste 22 Sudoeste 0 -- -- 55
2019-04-15 15:00:00 14.6 13 Sudoeste 21 Sudoeste 0 -- -- 56
2019-04-15 14:00:00 15.4 13 Sudoeste 23 Sudoeste 0 -- -- 53
2019-04-15 13:00:00 17 4 Norte 16 Noroeste 0 -- -- 50
2019-04-15 12:00:00 15.7 4 Sur 9 Oeste 0 -- -- 52
2019-04-15 11:00:00 13.1 3 Noroeste 6 Oeste 0 -- -- 66
2019-04-15 10:00:00 9.2 2 Noroeste 5 Noroeste 0 -- -- 78
2019-04-15 09:00:00 5.7 0 Calma 3 Este 0 -- -- 93
2019-04-15 08:00:00 4.3 0 Calma 3 Noroeste 0 -- -- 93
2019-04-15 07:00:00 4.8 0 Calma 3 Este 0 -- -- 90
2019-04-15 06:00:00 4.7 0 Calma 3 Oeste 0 -- -- 91
2019-04-15 05:00:00 5.3 2 Este 4 Nordeste 0 -- -- 88
2019-04-15 04:00:00 5.9 2 Oeste 4 Sur 0 -- -- 83
2019-04-15 03:00:00 5.9 0 Calma 8 Oeste 0 -- -- 82
2019-04-15 02:00:00 6.3 3 Este 6 Este 0 -- -- 82
2019-04-15 01:00:00 6.5 0 Calma 6 Este 0 -- -- 81
2019-04-15 00:00:00 7.3 2 Este 6 Este 0 -- -- 78
2019-04-14 23:00:00 8.5 0 Calma 8 Este 0 -- -- 71
2019-04-14 22:00:00 10.7 3 Sudeste 15 Este 0 -- -- 63
2019-04-14 21:00:00 12.8 6 Este 18 Nordeste 0 -- -- 56
2019-04-14 20:00:00 14.2 9 Este 30 Este 0 -- -- 51
2019-04-14 19:00:00 14.8 11 Este 34 Nordeste 0 -- -- 49
2019-04-14 18:00:00 15.4 12 Nordeste 25 Nordeste 0 -- -- 46
2019-04-14 17:00:00 15.8 11 Nordeste 26 Este 0 -- -- 43
2019-04-14 16:00:00 16.4 22 Nordeste 41 Este 0 -- -- 45
2019-04-14 15:00:00 14.6 9 Oeste 27 Nordeste 0 -- -- 43
2019-04-14 14:00:00 15.4 4 Norte 30 Oeste 0 -- -- 35
2019-04-14 13:00:00 15.8 12 Nordeste 30 Este 0 -- -- 34
2019-04-14 12:00:00 15.3 6 Oeste 21 Nordeste 0 -- -- 29
2019-04-14 11:00:00 12.8 8 Nordeste 19 Nordeste 0 -- -- 28
2019-04-14 10:00:00 7.5 3 Sudeste 9 Este 0 -- -- 44
2019-04-14 09:00:00 2.8 3 Nordeste 8 Oeste 0 -- -- 65
2019-04-14 08:00:00 0.9 0 Calma 4 Nordeste 0 -- -- 62
2019-04-14 07:00:00 1.1 2 Este 4 Nordeste 0 -- -- 60
2019-04-14 06:00:00 1.2 0 Calma 5 Este 0 -- -- 57
2019-04-14 05:00:00 1.2 0 Calma 6 Nordeste 0 -- -- 56
2019-04-14 04:00:00 1.5 2 Sudoeste 10 Nordeste 0 -- -- 51
2019-04-14 03:00:00 1.9 0 Calma 6 Sudeste 0 -- -- 50
2019-04-14 02:00:00 2.5 0 Calma 5 Nordeste 0 -- -- 44
2019-04-14 01:00:00 3.2 0 Calma 4 Oeste 0 -- -- 42
2019-04-14 00:00:00 4.2 2 Sudoeste 8 Este 0 -- -- 40
2019-04-13 23:00:00 5 0 Calma 9 Nordeste 0 -- -- 37
2019-04-13 22:00:00 6.8 4 Este 9 Sudoeste 0 -- -- 34
2019-04-13 21:00:00 10.3 2 Sudoeste 32 Este 0 -- -- 24
2019-04-13 20:00:00 13.8 13 Este 37 Este 0 -- -- 14
2019-04-13 19:00:00 15.2 7 Este 29 Norte 0 -- -- 15
2019-04-13 18:00:00 16.2 9 Norte 27 Este 0 -- -- 12
2019-04-13 17:00:00 16.3 10 Norte 30 Norte 0 -- -- 11
2019-04-13 16:00:00 17.1 8 Nordeste 31 Norte 0 -- -- 13
2019-04-13 15:00:00 16.4 9 Oeste 26 Nordeste 0 -- -- 13
2019-04-13 14:00:00 15.4 8 Norte 24 Oeste 0 -- -- 15
2019-04-13 13:00:00 14.2 8 Oeste 21 Noroeste 0 -- -- 16
2019-04-13 12:00:00 12.6 8 Norte 20 Norte 0 -- -- 19
2019-04-13 11:00:00 9.6 6 Oeste 9 Oeste 0 -- -- 29
2019-04-13 10:00:00 4.5 0 Calma 5 Este 0 -- -- 42
2019-04-13 09:00:00 -1.1 2 Sur 5 Este 0 -- -- 56
2019-04-13 08:00:00 -2.1 0 Calma 6 Este 0 -- -- 57
2019-04-13 07:00:00 -2.3 2 Oeste 6 Este 0 -- -- 58
2019-04-13 06:00:00 -2.1 0 Calma 5 Este 0 -- -- 60
2019-04-13 05:00:00 -2.1 2 Sur 7 Sudoeste 0 -- -- 59
2019-04-13 04:00:00 -2 0 Calma 4 Nordeste 0 -- -- 60
2019-04-13 03:00:00 -1.8 2 Sudoeste 6 Este 0 -- -- 62
2019-04-13 02:00:00 -1 2 Este 7 Nordeste 0 -- -- 57
2019-04-13 01:00:00 -0.3 2 Oeste 6 Este 0 -- -- 56
2019-04-13 00:00:00 -0.1 4 Sudeste 8 Nordeste 0 -- -- 57
2019-04-12 23:00:00 1.9 3 Sudoeste 8 Sudeste 0 -- -- 50
2019-04-12 22:00:00 4.7 3 Sudoeste 10 Nordeste 0 -- -- 39
2019-04-12 21:00:00 7.5 7 Noroeste 21 Oeste 0 -- -- 29
2019-04-12 20:00:00 10.1 9 Nordeste 26 Nordeste 0 -- -- 26
2019-04-12 19:00:00 11.9 13 Norte 30 Norte 0 -- -- 22
2019-04-12 18:00:00 13.1 12 Nordeste 29 Nordeste 0 -- -- 20
2019-04-12 17:00:00 13.8 10 Nordeste 33 Norte 0 -- -- 18
2019-04-12 16:00:00 14 9 Norte 31 Este 0 -- -- 18
2019-04-12 15:00:00 14 9 Norte 29 Norte 0 -- -- 20
2019-04-12 14:00:00 13.5 10 Noroeste 27 Oeste 0 -- -- 20
2019-04-12 13:00:00 12 8 Norte 25 Noroeste 0 -- -- 25
2019-04-12 12:00:00 10.6 5 Norte 19 Norte 0 -- -- 34
2019-04-12 11:00:00 8.9 5 Noroeste 14 Nordeste 0 -- -- 39
2019-04-12 10:00:00 6.5 5 Este 14 Nordeste 0 -- -- 47
2019-04-12 09:00:00 4.7 5 Norte 16 Nordeste 0 -- -- 53
2019-04-12 08:00:00 4.6 5 Nordeste 24 Nordeste 0 -- -- 55
2019-04-12 07:00:00 5.1 10 Nordeste 32 Nordeste 0 -- -- 54
2019-04-12 06:00:00 5.1 13 Este 26 Este 0 -- -- 55
2019-04-12 05:00:00 5.4 9 Este 15 Nordeste 0 -- -- 59
2019-04-12 04:00:00 6.1 9 Nordeste 20 Norte 0 -- -- 59
2019-04-12 03:00:00 5.3 7 Nordeste 15 Nordeste 0 -- -- 66
2019-04-12 02:00:00 4.1 3 Este 10 Sur 0 -- -- 73
2019-04-12 01:00:00 4.4 4 Sudeste 11 Nordeste 0 -- -- 70
2019-04-12 00:00:00 5.3 3 Sudoeste 9 Este 0 -- -- 63
2019-04-11 23:00:00 5 6 Este 13 Nordeste 0 -- -- 66
2019-04-11 22:00:00 5.2 6 Este 14 Nordeste 0 -- -- 67
2019-04-11 21:00:00 7 6 Nordeste 15 Nordeste 0 -- -- 58
2019-04-11 20:00:00 8.2 6 Nordeste 18 Nordeste 0 -- -- 54
2019-04-11 19:00:00 8.6 8 Nordeste 27 Nordeste 0 -- -- 50
2019-04-11 18:00:00 9.6 8 Nordeste 25 Nordeste 0 -- -- 47
2019-04-11 17:00:00 10.3 8 Norte 24 Norte 0 -- -- 45
2019-04-11 16:00:00 10 8 Nordeste 25 Nordeste 0 -- -- 44
2019-04-11 15:00:00 11.2 11 Nordeste 23 Nordeste 0 -- -- 40
2019-04-11 14:00:00 10.4 9 Norte 36 Noroeste 0 -- -- 38
2019-04-11 13:00:00 10.1 10 Nordeste 29 Nordeste 0 -- -- 39
2019-04-11 12:00:00 9.7 8 Norte 29 Nordeste 0 -- -- 35
2019-04-11 11:00:00 7.5 10 Nordeste 30 Norte 0 -- -- 43
2019-04-11 10:00:00 5.6 10 Nordeste 28 Nordeste 0 -- -- 47
2019-04-11 09:00:00 4 11 Nordeste 26 Este 0 -- -- 52
2019-04-11 08:00:00 2.6 12 Este 19 Este 0 -- -- 61
2019-04-11 07:00:00 2.5 7 Nordeste 25 Nordeste 0 -- -- 66
2019-04-11 06:00:00 3 11 Este 23 Nordeste 0 -- -- 70
2019-04-11 05:00:00 1.8 5 Nordeste 19 Este 0 -- -- 80
2019-04-11 04:00:00 2.2 4 Este 15 Este 0 -- -- 77
2019-04-11 03:00:00 2.4 6 Este 13 Este 0 -- -- 77
2019-04-11 02:00:00 3.2 3 Sudeste 9 Este 0 -- -- 71
2019-04-11 01:00:00 3.2 3 Sudeste 9 Oeste 0 -- -- 69
2019-04-11 00:00:00 3.4 4 Sudeste 10 Sudeste 0 -- -- 67
2019-04-10 23:00:00 3.4 4 Este 10 Este 0 -- -- 66
2019-04-10 22:00:00 5.3 7 Este 23 Este 0 -- -- 58
2019-04-10 21:00:00 6 9 Nordeste 19 Nordeste 0 -- -- 55
2019-04-10 20:00:00 7.1 9 Nordeste 24 Nordeste 0 -- -- 50
2019-04-10 19:00:00 8.7 10 Nordeste 28 Nordeste 0 -- -- 42
2019-04-10 18:00:00 9.4 10 Nordeste 24 Nordeste 0 -- -- 44
2019-04-10 17:00:00 10.7 11 Norte 33 Noroeste 0 -- -- 38
2019-04-10 16:00:00 11.1 12 Nordeste 34 Este 0 -- -- 40
2019-04-10 15:00:00 9.9 9 Nordeste 23 Nordeste 0 -- -- 51
2019-04-10 14:00:00 7.8 5 Nordeste 18 Este 0 -- -- 58
2019-04-10 13:00:00 8 6 Nordeste 17 Norte 0 -- -- 55
2019-04-10 12:00:00 8.2 8 Norte 16 Norte 0 -- -- 59
2019-04-10 11:00:00 6.2 3 Sudeste 5 Este 0 -- -- 76
2019-04-10 10:00:00 1.7 3 Sudeste 6 Este 0 -- -- 98
2019-04-10 09:00:00 -0.7 2 Este 9 Sudoeste 0 -- -- 100
2019-04-10 08:00:00 -1.4 6 Sur 10 Este 0 -- -- 99
2019-04-10 07:00:00 -1 0 Calma 6 Este 0 -- -- 100
2019-04-10 06:00:00 -0.9 0 Calma 4 Este 0 -- -- 100
2019-04-10 05:00:00 -0.7 0 Calma 5 Sudoeste 0 -- -- 100
2019-04-10 04:00:00 -0.5 3 Sudoeste 6 Este 0 -- -- 100
2019-04-10 03:00:00 -0.8 2 Este 5 Este 0 -- -- 100
2019-04-10 02:00:00 -0.5 0 Calma 4 Sur 0 -- -- 100
2019-04-10 01:00:00 -0.1 0 Calma 5 Este 0 -- -- 99
2019-04-10 00:00:00 0.1 0 Calma 4 Sudeste 0 -- -- 99
2019-04-09 23:00:00 0.6 0 Calma 5 Este 0 -- -- 99
2019-04-09 22:00:00 1 0 Calma 6 Sudoeste 0 -- -- 97
2019-04-09 21:00:00 2.3 3 Este 7 Sudeste 0 -- -- 94
2019-04-09 20:00:00 4.4 3 Sudoeste 12 Este 0 -- -- 90
2019-04-09 19:00:00 5.5 6 Este 15 Este 0 -- -- 84
2019-04-09 18:00:00 5.3 4 Oeste 9 Oeste 0 -- -- 88
2019-04-09 17:00:00 4.2 5 Sudoeste 15 Este 0 -- -- 93
2019-04-09 16:00:00 3.6 10 Este 16 Este 0.8 -- -- 90
2019-04-09 15:00:00 4.4 12 Este 28 Nordeste 3.6 -- -- 81
2019-04-09 14:00:00 9.2 18 Sudoeste 25 Oeste 0 -- -- 67
2019-04-09 13:00:00 10.4 6 Oeste 16 Oeste 0 -- -- 65
2019-04-09 12:00:00 9.9 7 Oeste 15 Oeste 0 -- -- 64
2019-04-09 11:00:00 6.4 4 Noroeste 14 Sudoeste 0 -- -- 84
2019-04-09 10:00:00 3.5 6 Sur 11 Sur 0 -- -- 98
2019-04-09 09:00:00 2.2 0 Calma 5 Nordeste 0 -- -- 100
2019-04-09 08:00:00 1.4 0 Calma 5 Este 0 -- -- 99
2019-04-09 07:00:00 1.6 0 Calma 9 Sudoeste 0 -- -- 98
2019-04-09 06:00:00 1.9 4 Este 15 Sudeste 1.4 -- -- 97
2019-04-09 05:00:00 2.6 8 Sudeste 36 Norte 3.8 -- -- 94
2019-04-09 04:00:00 3.8 0 Calma 6 Este 0 -- -- 94
2019-04-09 03:00:00 3 0 Calma 9 Este 0 -- -- 92
2019-04-09 02:00:00 3.9 0 Calma 5 Oeste 0 -- -- 92
2019-04-09 01:00:00 4.2 0 Calma 4 Sudoeste 0 -- -- 89
2019-04-09 00:00:00 4.4 0 Calma 6 Sudeste 0 -- -- 89
2019-04-08 23:00:00 4.5 2 Oeste 6 Este 0 -- -- 87
2019-04-08 22:00:00 5.1 2 Sudeste 5 Este 0 -- -- 85
2019-04-08 21:00:00 7.4 2 Sur 9 Oeste 0 -- -- 76
2019-04-08 20:00:00 9.8 7 Este 13 Oeste 0 -- -- 67
2019-04-08 19:00:00 11.8 5 Sudoeste 15 Oeste 0 -- -- 57
2019-04-08 18:00:00 11.9 6 Norte 17 Noroeste 0 -- -- 60
2019-04-08 17:00:00 12.1 6 Noroeste 15 Oeste 0 -- -- 49
2019-04-08 16:00:00 13.2 7 Norte 21 Noroeste 0 -- -- 47
2019-04-08 15:00:00 12.5 5 Nordeste 16 Norte 0 -- -- 46
2019-04-08 14:00:00 11.2 5 Norte 16 Norte 0 -- -- 51
2019-04-08 13:00:00 10.3 5 Nordeste 17 Nordeste 0 -- -- 49
2019-04-08 12:00:00 8.8 6 Nordeste 16 Nordeste 0 -- -- 55
2019-04-08 11:00:00 7.3 4 Nordeste 11 Este 0 -- -- 64
2019-04-08 10:00:00 3.9 0 Calma 11 Sudeste 0 -- -- 89
2019-04-08 09:00:00 1.5 0 Calma 4 Sudoeste 0 -- -- 100
2019-04-08 08:00:00 0.4 0 Calma 4 Nordeste 0 -- -- 100
2019-04-08 07:00:00 0.1 0 Calma 4 Este 0 -- -- 100
2019-04-08 06:00:00 0.4 0 Calma 3 Oeste 0 -- -- 100
2019-04-08 05:00:00 0.3 0 Calma 4 Sur 0 -- -- 100
2019-04-08 04:00:00 0.5 0 Calma 4 Sudeste 0 -- -- 98
2019-04-08 03:00:00 0.6 0 Calma 4 Este 0 -- -- 99
2019-04-08 02:00:00 1.2 2 Sudoeste 4 Oeste 0 -- -- 96
2019-04-08 01:00:00 1.9 2 Sudeste 6 Este 0 -- -- 97
2019-04-08 00:00:00 1.4 0 Calma 4 Sudeste 0 -- -- 98
2019-04-07 23:00:00 1.8 0 Calma 5 Este 0 -- -- 95
2019-04-07 22:00:00 1.7 0 Calma 6 Este 0 -- -- 92
2019-04-07 21:00:00 3 0 Calma 11 Oeste 0 -- -- 87
2019-04-07 20:00:00 5.8 5 Oeste 11 Oeste 0 -- -- 78
2019-04-07 19:00:00 6 8 Oeste 19 Sudoeste 0 -- -- 75
2019-04-07 18:00:00 7.5 11 Sudoeste 18 Sudoeste 0 -- -- 68
2019-04-07 17:00:00 6.7 5 Sudeste 23 Sudoeste 0.4 -- -- 77
2019-04-07 16:00:00 7.5 7 Este 19 Este 0 -- -- 66
2019-04-07 15:00:00 6.9 7 Oeste 15 Oeste 0 -- -- 73
2019-04-07 14:00:00 6.6 6 Este 18 Noroeste 0.4 -- -- 69
2019-04-07 13:00:00 7.4 6 Noroeste 14 Noroeste 0 -- -- 68
2019-04-07 12:00:00 4.4 5 Oeste 10 Oeste 0 -- -- 84
2019-04-07 11:00:00 1.4 0 Calma 6 Sudoeste 0 -- -- 90
2019-04-07 10:00:00 0.6 3 Sudoeste 8 Sudoeste 0 -- -- 93
2019-04-07 09:00:00 -0.1 3 Noroeste 7 Sur 0 -- -- 98
2019-04-07 08:00:00 -0.5 0 Calma 5 Este 0 -- -- 100
2019-04-07 07:00:00 -0.8 0 Calma 6 Sudeste 0 -- -- 99
2019-04-07 06:00:00 -0.2 2 Sudeste 10 Este 0 -- -- 100
2019-04-07 05:00:00 0 0 Calma 4 Nordeste 0 -- -- 100
2019-04-07 04:00:00 0 3 Nordeste 5 Este 0 -- -- 100
2019-04-07 03:00:00 -0.1 0 Calma 5 Este 0 -- -- 100
2019-04-07 02:00:00 0.1 0 Calma 6 Oeste 0.6 -- -- 100
2019-04-07 01:00:00 0.1 4 Sudoeste 6 Sudeste 1.8 -- -- 100
2019-04-07 00:00:00 0.5 3 Oeste 6 Oeste 0 -- -- 100
2019-04-06 23:00:00 0.4 0 Calma 5 Este 0 -- -- 99
2019-04-06 22:00:00 0.6 3 Sudoeste 10 Sudeste 0.8 -- -- 98
2019-04-06 21:00:00 0.6 0 Calma 13 Nordeste 1.8 -- -- 97
2019-04-06 20:00:00 1.9 12 Nordeste 19 Nordeste 0.4 -- -- 88
2019-04-06 19:00:00 4.7 2 Noroeste 14 Oeste 0 -- -- 73
2019-04-06 18:00:00 5.3 3 Nordeste 13 Norte 0 -- -- 64
2019-04-06 17:00:00 4.3 7 Nordeste 21 Nordeste 0 -- -- 74
2019-04-06 16:00:00 3.4 7 Nordeste 18 Este 0 -- -- 78
2019-04-06 15:00:00 4.2 4 Nordeste 19 Nordeste 0 -- -- 71
2019-04-06 14:00:00 2.7 8 Nordeste 24 Norte 0 -- -- 79
2019-04-06 13:00:00 2.1 11 Nordeste 27 Norte 0 -- -- 82
2019-04-06 12:00:00 1.8 5 Sur 10 Sudeste 1.8 -- -- 92
2019-04-06 11:00:00 1.5 0 Calma 6 Este 0.8 -- -- 95
2019-04-06 10:00:00 1.2 0 Calma 5 Sudoeste 0 -- -- 97
2019-04-06 09:00:00 0.7 4 Este 7 Este 0 -- -- 99
2019-04-06 08:00:00 0.4 4 Sudeste 10 Este 0 -- -- 100
2019-04-06 07:00:00 0.3 5 Sur 9 Sur 0.4 -- -- 100
2019-04-06 06:00:00 0.3 3 Sudoeste 10 Sudeste 0.2 -- -- 100
2019-04-06 05:00:00 0.5 0 Calma 5 Sudoeste 0.2 -- -- 100
2019-04-06 04:00:00 0.3 0 Calma 0 Calma 0.6 -- -- 100
2019-04-06 03:00:00 0.2 0 Calma 3 Noroeste 1.2 -- -- 100
2019-04-06 02:00:00 0.4 0 Calma 0 Calma 3.8 -- -- 100
2019-04-06 01:00:00 0.3 0 Calma 4 Oeste 6.2 -- -- 99
2019-04-06 00:00:00 0.4 0 Calma 5 Oeste 8.6 -- -- 97
2019-04-05 23:00:00 1.4 0 Calma 6 Noroeste 3.4 -- -- 94
2019-04-05 22:00:00 2.6 4 Sur 17 Este 2.6 -- -- 94
2019-04-05 21:00:00 3.2 5 Este 30 Sur 1.8 -- -- 91
2019-04-05 20:00:00 4.5 12 Sur 32 Sur 0.4 -- -- 78
2019-04-05 19:00:00 4.4 4 Sur 14 Sudoeste 0.2 -- -- 90
2019-04-05 18:00:00 5.5 4 Sudoeste 12 Sudoeste 0 -- -- 73
2019-04-05 17:00:00 5.8 10 Sudoeste 18 Oeste 0 -- -- 72
2019-04-05 16:00:00 6.6 9 Oeste 23 Oeste 0 -- -- 63
2019-04-05 15:00:00 7.1 12 Oeste 23 Oeste 0 -- -- 64
2019-04-05 14:00:00 5.3 3 Nordeste 6 Nordeste 0 -- -- 74
2019-04-05 13:00:00 4.2 4 Oeste 11 Oeste 0 -- -- 73
2019-04-05 12:00:00 3.9 5 Sudoeste 15 Sudoeste 0 -- -- 63
2019-04-05 11:00:00 2.9 0 Calma 7 Norte 0 -- -- 71
2019-04-05 10:00:00 1.3 0 Calma 5 Noroeste 0 -- -- 72
2019-04-05 09:00:00 -1 0 Calma 6 Noroeste 0 -- -- 79
2019-04-05 08:00:00 -2.4 0 Calma 8 Sudeste 0 -- -- 76
2019-04-05 07:00:00 -2.5 2 Sudoeste 6 Oeste 0 -- -- 76
2019-04-05 06:00:00 -2.1 0 Calma 8 Sudoeste 0 -- -- 73
2019-04-05 05:00:00 -2.2 0 Calma 8 Noroeste 0 -- -- 75
2019-04-05 04:00:00 -2.4 0 Calma 5 Sudeste 0 -- -- 79
2019-04-05 03:00:00 -2.2 0 Calma 4 Este 0 -- -- 79
2019-04-05 02:00:00 -1.8 2 Sudoeste 10 Nordeste 0 -- -- 78
2019-04-05 01:00:00 -1.6 3 Sudoeste 5 Sudoeste 0 -- -- 77
2019-04-05 00:00:00 -1.3 2 Sudeste 6 Este 0 -- -- 77
2019-04-04 23:00:00 -0.9 0 Calma 7 Este 0 -- -- 76
2019-04-04 22:00:00 0.1 2 Sudeste 6 Este 0 -- -- 71
2019-04-04 21:00:00 1.8 2 Sur 12 Sudoeste 0 -- -- 64
2019-04-04 20:00:00 5.7 5 Norte 19 Nordeste 0 -- -- 50
2019-04-04 19:00:00 7.4 9 Noroeste 21 Norte 0 -- -- 44
2019-04-04 18:00:00 8.2 8 Norte 22 Oeste 0 -- -- 39
2019-04-04 17:00:00 8.3 5 Noroeste 26 Oeste 0 -- -- 40
2019-04-04 16:00:00 8 7 Norte 22 Noroeste 0 -- -- 40
2019-04-04 15:00:00 7.3 5 Oeste 20 Oeste 0 -- -- 42
2019-04-04 14:00:00 7.5 9 Noroeste 23 Oeste 0 -- -- 37
2019-04-04 13:00:00 6 9 Noroeste 24 Este 0 -- -- 48
2019-04-04 12:00:00 4.2 8 Nordeste 19 Norte 0 -- -- 47
2019-04-04 11:00:00 2.5 6 Nordeste 18 Norte 0 -- -- 54
2019-04-04 10:00:00 -1.6 4 Sudeste 8 Este 0 -- -- 87
2019-04-04 09:00:00 -4 0 Calma 5 Oeste 0 -- -- 96
2019-04-04 08:00:00 -4.1 0 Calma 5 Este 0 -- -- 95
2019-04-04 07:00:00 -3.8 3 Sudoeste 8 Este 0 -- -- 96
2019-04-04 06:00:00 -3.2 0 Calma 6 Este 0 -- -- 95
2019-04-04 05:00:00 -2.5 2 Oeste 5 Este 0 -- -- 95
2019-04-04 04:00:00 -2.2 4 Este 9 Nordeste 0 -- -- 95
2019-04-04 03:00:00 -1.5 3 Sudoeste 8 Sur 0 -- -- 96
2019-04-04 02:00:00 -1.3 3 Sur 6 Oeste 0 -- -- 97
2019-04-04 01:00:00 -0.7 2 Este 9 Sudeste 0 -- -- 96
2019-04-04 00:00:00 -0.1 3 Sudeste 11 Este 0 -- -- 95
2019-04-03 23:00:00 1.7 6 Este 17 Este 0 -- -- 83
2019-04-03 22:00:00 2.1 8 Nordeste 14 Este 0.2 -- -- 88
2019-04-03 21:00:00 2.5 3 Sudoeste 11 Nordeste 0 -- -- 95
2019-04-03 20:00:00 3.1 4 Sudoeste 10 Sudeste 0 -- -- 94
2019-04-03 19:00:00 3.3 6 Sudeste 17 Sudeste 0.6 -- -- 90
2019-04-03 18:00:00 4 9 Nordeste 18 Nordeste 1 -- -- 90
2019-04-03 17:00:00 5.2 4 Norte 11 Nordeste 0.2 -- -- 82
2019-04-03 16:00:00 5.4 4 Sudeste 17 Sudoeste 0 -- -- 85
2019-04-03 15:00:00 5.2 4 Nordeste 17 Nordeste 1.8 -- -- 88
2019-04-03 14:00:00 6.3 7 Sudoeste 16 Sudoeste 0.2 -- -- 79
2019-04-03 13:00:00 6.2 6 Sudoeste 20 Oeste 0 -- -- 81
2019-04-03 12:00:00 6.8 10 Sudoeste 20 Sudoeste 0 -- -- 77
2019-04-03 11:00:00 6.8 2 Nordeste 16 Nordeste 0 -- -- 80
2019-04-03 10:00:00 6.2 5 Sudeste 12 Sur 0 -- -- 90
2019-04-03 09:00:00 5.5 8 Sudoeste 34 Sudoeste 0.4 -- -- 92
2019-04-03 08:00:00 4.5 6 Sudoeste 13 Sudoeste 0.2 -- -- 99
2019-04-03 07:00:00 4.3 4 Sudoeste 7 Sudoeste 0.2 -- -- 98
2019-04-03 06:00:00 4.5 3 Sur 12 Este 0.8 -- -- 96
2019-04-03 05:00:00 4.6 5 Sur 7 Sudeste 0 -- -- 95
2019-04-03 04:00:00 4.8 0 Calma 8 Noroeste 0 -- -- 93
2019-04-03 03:00:00 4.9 2 Sur 9 Este 0 -- -- 91
2019-04-03 02:00:00 4.6 0 Calma 8 Sudeste 0 -- -- 91
2019-04-03 01:00:00 4.9 4 Sudoeste 12 Sur 0 -- -- 88
2019-04-03 00:00:00 5.1 0 Calma 8 Oeste 0 -- -- 87
2019-04-02 23:00:00 6.1 5 Sudoeste 10 Sur 0 -- -- 85
2019-04-02 22:00:00 5.9 4 Sur 9 Noroeste 0 -- -- 91
2019-04-02 21:00:00 6.1 5 Este 24 Oeste 0.2 -- -- 86
2019-04-02 20:00:00 8.9 6 Oeste 18 Oeste 0 -- -- 68
2019-04-02 19:00:00 11.1 12 Oeste 22 Oeste 0 -- -- 58
2019-04-02 18:00:00 10.2 13 Sudoeste 26 Oeste 0 -- -- 57
2019-04-02 17:00:00 12.8 9 Nordeste 21 Nordeste 0 -- -- 47
2019-04-02 16:00:00 13.6 12 Sudoeste 23 Sudoeste 0 -- -- 48
2019-04-02 15:00:00 11.6 12 Sudoeste 24 Sur 0.2 -- -- 65
2019-04-02 14:00:00 10.8 12 Sudoeste 16 Sudoeste 0 -- -- 66
2019-04-02 13:00:00 11.4 4 Oeste 14 Oeste 0 -- -- 64
2019-04-02 12:00:00 10.5 5 Oeste 9 Sudoeste 0 -- -- 65
2019-04-02 11:00:00 7.9 2 Sur 4 Sudoeste 0 -- -- 92
2019-04-02 10:00:00 5.2 0 Calma 2 Este 0 -- -- 100
2019-04-02 09:00:00 3.3 0 Calma 3 Este 0 -- -- 100
2019-04-02 08:00:00 2.3 0 Calma 3 Nordeste 0 -- -- 100
2019-04-02 07:00:00 2.4 0 Calma 3 Sur 0 -- -- 100
2019-04-02 06:00:00 2.6 0 Calma 5 Este 0 -- -- 100
2019-04-02 05:00:00 3 0 Calma 3 Sudoeste 0 -- -- 100
2019-04-02 04:00:00 3.3 0 Calma 2 Sur 0 -- -- 100
2019-04-02 03:00:00 2.8 0 Calma 4 Este 0 -- -- 100
2019-04-02 02:00:00 3.2 0 Calma 5 Este 0 -- -- 100
2019-04-02 01:00:00 3.8 0 Calma 3 Este 0 -- -- 99
2019-04-02 00:00:00 4.3 0 Calma 3 Sudeste 0 -- -- 100
2019-04-01 23:00:00 4.6 0 Calma 3 Sur 0 -- -- 97
2019-04-01 22:00:00 6 0 Calma 5 Sur 0 -- -- 96
2019-04-01 21:00:00 6.7 0 Calma 4 Sudoeste 0 -- -- 95
2019-04-01 20:00:00 7.4 0 Calma 6 Oeste 0 -- -- 92
2019-04-01 19:00:00 7.8 2 Este 7 Oeste 0.2 -- -- 93
2019-04-01 18:00:00 8 0 Calma 8 Noroeste 1.2 -- -- 89
2019-04-01 17:00:00 8.9 3 Sudoeste 15 Sudeste 0.2 -- -- 83
2019-04-01 16:00:00 10 9 Este 19 Sudeste 0 -- -- 69
2019-04-01 15:00:00 11.4 6 Sudeste 18 Este 0 -- -- 70
2019-04-01 14:00:00 12.6 6 Nordeste 15 Nordeste 0 -- -- 53
2019-04-01 13:00:00 13.3 7 Norte 18 Noroeste 0 -- -- 50
2019-04-01 12:00:00 12 5 Oeste 24 Oeste 0 -- -- 54
2019-04-01 11:00:00 10.1 3 Oeste 6 Noroeste 0 -- -- 60
2019-04-01 10:00:00 5.8 0 Calma 3 Noroeste 0 -- -- 83
2019-04-01 09:00:00 4.3 0 Calma -- -- 0 -- -- 87
2019-04-01 08:00:00 3.8 0 Calma 3 Nordeste 0 -- -- 89
2019-04-01 07:00:00 3.6 2 Este 5 Nordeste 0 -- -- 89
2019-04-01 06:00:00 3.3 0 Calma 2 Oeste 0 -- -- 90
2019-04-01 05:00:00 3.1 0 Calma 4 Nordeste 0 -- -- 90
2019-04-01 04:00:00 3.4 2 Nordeste 3 Nordeste 0 -- -- 88
2019-04-01 03:00:00 3.7 0 Calma 3 Sudoeste 0 -- -- 87
2019-04-01 02:00:00 3.9 0 Calma 4 Este 0 -- -- 84
2019-04-01 01:00:00 4.6 0 Calma 4 Sur 0 -- -- 81
2019-04-01 00:00:00 5.6 0 Calma 5 Sur 0 -- -- 77
2019-03-31 23:00:00 6.4 3 Sudeste 9 Sudoeste 0 -- -- 73
2019-03-31 22:00:00 7.5 5 Sudoeste 12 Sur 0 -- -- 69
2019-03-31 21:00:00 8.1 3 Sur 16 Sudoeste 0 -- -- 64
2019-03-31 20:00:00 9.1 5 Sudoeste 22 Sudoeste 0 -- -- 60
2019-03-31 19:00:00 10.2 8 Sudoeste 23 Oeste 0 -- -- 56
2019-03-31 18:00:00 11.1 14 Oeste 29 Oeste 0 -- -- 54
2019-03-31 17:00:00 11.4 17 Oeste 30 Oeste 0 -- -- 55
2019-03-31 16:00:00 11 17 Sudoeste 37 Oeste 0 -- -- 50
2019-03-31 15:00:00 12.9 22 Oeste 35 Oeste 0 -- -- 44
2019-03-31 14:00:00 11.4 19 Oeste 29 Sudoeste 0 -- -- 49
2019-03-31 13:00:00 11.4 5 Noroeste 14 Noroeste 0 -- -- 42
2019-03-31 12:00:00 10 3 Norte 8 Noroeste 0 -- -- 45
2019-03-31 11:00:00 7.2 5 Oeste 10 Noroeste 0 -- -- 52
2019-03-31 10:00:00 3 0 Calma 3 Sudoeste 0 -- -- 76
2019-03-31 09:00:00 -0.1 0 Calma 5 Este 0 -- -- 88
2019-03-31 08:00:00 -1.2 0 Calma 4 Oeste 0 -- -- 89
2019-03-31 07:00:00 -1 0 Calma 5 Nordeste 0 -- -- 92
2019-03-31 06:00:00 -0.6 0 Calma 4 Oeste 0 -- -- 93
2019-03-31 05:00:00 -0.2 0 Calma 4 Sudoeste 0 -- -- 93
2019-03-31 03:00:00 0.3 0 Calma 4 Sudoeste 0 -- -- 90
2019-03-31 01:00:00 0.8 0 Calma 4 Oeste 0 -- -- 87
2019-03-31 00:00:00 1.6 0 Calma 4 Este 0 -- -- 85
2019-03-30 23:00:00 2.4 2 Este 4 Este 0 -- -- 80
2019-03-30 22:00:00 3.9 3 Sudoeste 15 Sudoeste 0 -- -- 71
2019-03-30 21:00:00 4.8 2 Sur 10 Sudoeste 0 -- -- 70
2019-03-30 20:00:00 7.1 5 Sudoeste 15 Sudoeste 0 -- -- 60
2019-03-30 19:00:00 9.1 8 Sudoeste 24 Sudoeste 0 -- -- 54
2019-03-30 18:00:00 11.1 17 Oeste 27 Oeste 0 -- -- 47
2019-03-30 17:00:00 11.7 21 Oeste 35 Noroeste 0 -- -- 45
2019-03-30 16:00:00 12.5 20 Oeste 33 Oeste 0 -- -- 43
2019-03-30 15:00:00 12.8 20 Oeste 39 Oeste 0 -- -- 44
2019-03-30 14:00:00 12.9 21 Oeste 35 Oeste 0 -- -- 44
2019-03-30 13:00:00 12.7 21 Oeste 32 Oeste 0 -- -- 41
2019-03-30 12:00:00 11.8 17 Oeste 30 Oeste 0 -- -- 43
2019-03-30 11:00:00 10.3 6 Norte 14 Oeste 0 -- -- 40
2019-03-30 10:00:00 7.5 3 Norte 8 Noroeste 0 -- -- 62
2019-03-30 09:00:00 1.7 0 Calma 3 Este 0 -- -- 89
2019-03-30 08:00:00 -1.1 0 Calma 4 Este 0 -- -- 93
2019-03-30 07:00:00 -1.8 0 Calma 3 Nordeste 0 -- -- 92
2019-03-30 06:00:00 -1.6 0 Calma 3 Oeste 0 -- -- 92
2019-03-30 05:00:00 -1.5 2 Este 4 Sudoeste 0 -- -- 92
2019-03-30 04:00:00 -1.6 0 Calma 3 Sudeste 0 -- -- 92
2019-03-30 03:00:00 -1.2 0 Calma 3 Sur 0 -- -- 90
2019-03-30 02:00:00 -0.7 0 Calma 4 Este 0 -- -- 89
2019-03-30 01:00:00 -0.1 0 Calma 4 Este 0 -- -- 86
2019-03-30 00:00:00 0.5 0 Calma 5 Sudeste 0 -- -- 84
2019-03-29 23:00:00 1.1 0 Calma 6 Sur 0 -- -- 81
2019-03-29 22:00:00 2.7 0 Calma 10 Sudoeste 0 -- -- 75
2019-03-29 21:00:00 4.5 6 Sur 13 Sur 0 -- -- 69
2019-03-29 20:00:00 5.7 6 Sur 14 Sur 0 -- -- 64
2019-03-29 19:00:00 7.8 8 Sudoeste 23 Oeste 0 -- -- 58
2019-03-29 18:00:00 9.3 12 Oeste 18 Oeste 0 -- -- 53
2019-03-29 17:00:00 8.8 10 Oeste 18 Oeste 0 -- -- 54
2019-03-29 16:00:00 9 11 Oeste 20 Oeste 0 -- -- 54
2019-03-29 15:00:00 8.9 13 Oeste 22 Oeste 0 -- -- 53
2019-03-29 14:00:00 8.5 13 Oeste 27 Oeste 0 -- -- 57
2019-03-29 13:00:00 9.1 15 Oeste 27 Oeste 0 -- -- 55
2019-03-29 12:00:00 9.3 16 Oeste 27 Oeste 0 -- -- 55
2019-03-29 11:00:00 10.6 17 Oeste 26 Oeste 0 -- -- 49
2019-03-29 10:00:00 9 9 Oeste 17 Oeste 0 -- -- 53
2019-03-29 09:00:00 4.5 3 Oeste 6 Oeste 0 -- -- 72
2019-03-29 08:00:00 2.4 2 Noroeste 4 Sudoeste 0 -- -- 81
2019-03-29 07:00:00 1.1 0 Calma 4 Sudoeste 0 -- -- 83
2019-03-29 06:00:00 0 0 Calma 5 Oeste 0 -- -- 87
2019-03-29 05:00:00 0 0 Calma 4 Norte 0 -- -- 86
2019-03-29 04:00:00 -0.2 2 Sur 4 Oeste 0 -- -- 84
2019-03-29 03:00:00 0.2 0 Calma 5 Sur 0 -- -- 83
2019-03-29 02:00:00 0.7 2 Nordeste 4 Este 0 -- -- 82
2019-03-29 01:00:00 1.3 0 Calma 5 Este 0 -- -- 78
2019-03-29 00:00:00 1.7 0 Calma 5 Sudeste 0 -- -- 76
2019-03-28 23:00:00 2.9 2 Sudoeste 7 Sur 0 -- -- 71
2019-03-28 22:00:00 4.8 3 Sur 15 Oeste 0 -- -- 63
2019-03-28 21:00:00 6.1 8 Sudoeste 16 Sudoeste 0 -- -- 59
2019-03-28 20:00:00 7.8 10 Sudoeste 17 Sudoeste 0 -- -- 52
2019-03-28 19:00:00 9.7 8 Oeste 28 Sudoeste 0 -- -- 48
2019-03-28 18:00:00 11.3 14 Oeste 26 Oeste 0 -- -- 45
2019-03-28 17:00:00 12.7 15 Oeste 29 Sudoeste 0 -- -- 42
2019-03-28 16:00:00 11.9 19 Oeste 32 Oeste 0 -- -- 43
2019-03-28 15:00:00 13.5 19 Oeste 33 Oeste 0 -- -- 39
2019-03-28 14:00:00 13.6 19 Oeste 27 Oeste 0 -- -- 37
2019-03-28 13:00:00 13.6 15 Sudoeste 22 Oeste 0 -- -- 34
2019-03-28 12:00:00 12.5 12 Oeste 19 Oeste 0 -- -- 35
2019-03-28 11:00:00 10.6 4 Norte 13 Noroeste 0 -- -- 29
2019-03-28 10:00:00 8 2 Sudoeste 6 Oeste 0 -- -- 39
2019-03-28 09:00:00 1.3 0 Calma 4 Este 0 -- -- 66
2019-03-28 08:00:00 -1.8 2 Nordeste 4 Nordeste 0 -- -- 68
2019-03-28 07:00:00 -1.8 0 Calma 4 Sudoeste 0 -- -- 67
2019-03-28 06:00:00 -1.9 0 Calma 4 Este 0 -- -- 63
2019-03-28 05:00:00 -1.5 0 Calma 4 Este 0 -- -- 62
2019-03-28 04:00:00 -1.1 0 Calma 3 Sudoeste 0 -- -- 58
2019-03-28 03:00:00 -0.8 0 Calma 5 Sudeste 0 -- -- 57
2019-03-28 02:00:00 -0.4 0 Calma 5 Este 0 -- -- 57
2019-03-28 01:00:00 0.2 0 Calma 6 Este 0 -- -- 55
2019-03-28 00:00:00 1.1 0 Calma 5 Sudoeste 0 -- -- 55
2019-03-27 23:00:00 1.6 2 Sudoeste 6 Nordeste 0 -- -- 58
2019-03-27 22:00:00 2.7 0 Calma 5 Sudeste 0 -- -- 58
2019-03-27 21:00:00 4.4 0 Calma 5 Este 0 -- -- 56
2019-03-27 20:00:00 6.3 3 Este 8 Sudoeste 0 -- -- 53
2019-03-27 19:00:00 10 3 Oeste 15 Noroeste 0 -- -- 43
2019-03-27 18:00:00 12.1 9 Oeste 23 Oeste 0 -- -- 39
2019-03-27 17:00:00 13 17 Oeste 30 Oeste 0 -- -- 38
2019-03-27 16:00:00 14 18 Oeste 30 Oeste 0 -- -- 35
2019-03-27 15:00:00 14.8 20 Oeste 31 Sudoeste 0 -- -- 30
2019-03-27 14:00:00 15 14 Oeste 27 Sudoeste 0 -- -- 23
2019-03-27 13:00:00 14.8 15 Oeste 29 Oeste 0 -- -- 21
2019-03-27 12:00:00 12.9 6 Norte 14 Norte 0 -- -- 16
2019-03-27 11:00:00 10.9 4 Noroeste 12 Oeste 0 -- -- 18
2019-03-27 10:00:00 7.6 3 Oeste 6 Oeste 0 -- -- 24
2019-03-27 09:00:00 0.5 0 Calma 6 Este 0 -- -- 44
2019-03-27 08:00:00 -2.2 0 Calma 6 Este 0 -- -- 44
2019-03-27 07:00:00 -2.5 2 Oeste 12 Este 0 -- -- 44
2019-03-27 06:00:00 -2.4 0 Calma 7 Este 0 -- -- 43
2019-03-27 05:00:00 -2.4 2 Sudeste 5 Sudeste 0 -- -- 45
2019-03-27 04:00:00 -2.6 0 Calma 9 Nordeste 0 -- -- 44
2019-03-27 03:00:00 -2.3 3 Oeste 8 Este 0 -- -- 42
2019-03-27 02:00:00 -2 0 Calma 8 Este 0 -- -- 41
2019-03-27 01:00:00 -1.5 2 Nordeste 9 Este 0 -- -- 40
2019-03-27 00:00:00 -0.7 0 Calma 8 Este 0 -- -- 34
2019-03-26 23:00:00 0 0 Calma 6 Este 0 -- -- 32
2019-03-26 22:00:00 0.8 2 Sur 10 Este 0 -- -- 31
2019-03-26 21:00:00 2.6 3 Este 12 Sudeste 0 -- -- 28
2019-03-26 20:00:00 6 5 Sur 16 Norte 0 -- -- 20
2019-03-26 19:00:00 9.4 7 Nordeste 22 Norte 0 -- -- 14
2019-03-26 18:00:00 11.7 9 Norte 27 Norte 0 -- -- 13
2019-03-26 17:00:00 12.3 9 Norte 36 Norte 0 -- -- 12
2019-03-26 16:00:00 13 12 Nordeste 42 Nordeste 0 -- -- 10
2019-03-26 15:00:00 14.2 12 Sudeste 32 Nordeste 0 -- -- 8
2019-03-26 14:00:00 13.1 13 Norte 41 Norte 0 -- -- 9
2019-03-26 13:00:00 13.3 15 Nordeste 42 Oeste 0 -- -- 9
2019-03-26 12:00:00 13.1 12 Norte 39 Noroeste 0 -- -- 9
2019-03-26 11:00:00 12.1 11 Norte 25 Oeste 0 -- -- 12
2019-03-26 10:00:00 8.4 9 Oeste 22 Sur 0 -- -- 15
2019-03-26 09:00:00 4.3 15 Oeste 29 Nordeste 0 -- -- 27
2019-03-26 08:00:00 -2.2 5 Sudeste 12 Sudeste 0 -- -- 57
2019-03-26 07:00:00 -2.7 4 Este 12 Nordeste 0 -- -- 67
2019-03-26 06:00:00 -2 3 Este 12 Este 0 -- -- 66
2019-03-26 05:00:00 -1.1 2 Este 6 Este 0 -- -- 63
2019-03-26 04:00:00 0.4 0 Calma 12 Este 0 -- -- 58
2019-03-26 03:00:00 2.7 7 Sudeste 24 Sudeste 0 -- -- 49
2019-03-26 02:00:00 2.5 5 Sudeste 20 Sudeste 0 -- -- 52
2019-03-26 01:00:00 1.7 3 Nordeste 14 Sudeste 0 -- -- 57
2019-03-26 00:00:00 4.3 5 Este 16 Nordeste 0 -- -- 49
2019-03-25 23:00:00 5 4 Sudoeste 13 Nordeste 0 -- -- 47
2019-03-25 22:00:00 5.9 4 Sudoeste 19 Oeste 0 -- -- 43
2019-03-25 21:00:00 7.1 6 Nordeste 18 Oeste 0 -- -- 38
2019-03-25 20:00:00 8.6 6 Sudoeste 24 Nordeste 0 -- -- 33
2019-03-25 19:00:00 11 6 Nordeste 18 Norte 0 -- -- 25
2019-03-25 18:00:00 13.4 8 Nordeste 26 Nordeste 0 -- -- 20
2019-03-25 17:00:00 15.1 10 Nordeste 32 Norte 0 -- -- 14
2019-03-25 16:00:00 15.8 12 Nordeste 34 Nordeste 0 -- -- 13
2019-03-25 15:00:00 17 9 Nordeste 32 Norte 0 -- -- 16
2019-03-25 14:00:00 16.9 10 Norte 27 Este 0 -- -- 22
2019-03-25 13:00:00 16.2 8 Nordeste 21 Nordeste 0 -- -- 27
2019-03-25 12:00:00 15.6 11 Noroeste 20 Oeste 0 -- -- 28
2019-03-25 11:00:00 14.1 5 Norte 11 Nordeste 0 -- -- 30
2019-03-25 10:00:00 10.7 3 Oeste 5 Oeste 0 -- -- 40
2019-03-25 09:00:00 3.2 0 Calma 3 Oeste 0 -- -- 76
2019-03-25 08:00:00 0.8 0 Calma 0 Calma 0 -- -- 77
2019-03-25 07:00:00 1 2 Sudoeste 5 Este 0 -- -- 79
2019-03-25 06:00:00 1.6 0 Calma 3 Sudoeste 0 -- -- 79
2019-03-25 05:00:00 2.2 0 Calma 4 Oeste 0 -- -- 79
2019-03-25 04:00:00 2.5 0 Calma -- -- 0 -- -- 77
2019-03-25 03:00:00 3.1 0 Calma 4 Sudeste 0 -- -- 76
2019-03-25 02:00:00 3.6 0 Calma 5 Oeste 0 -- -- 73
2019-03-25 01:00:00 4.1 0 Calma 3 Oeste 0 -- -- 70
2019-03-25 00:00:00 5 0 Calma 3 Este 0 -- -- 66
2019-03-24 23:00:00 5.9 0 Calma 6 Este 0 -- -- 62
2019-03-24 22:00:00 7.1 0 Calma 9 Este 0 -- -- 57
2019-03-24 21:00:00 9.6 3 Sudoeste 9 Sudoeste 0 -- -- 49
2019-03-24 20:00:00 11.9 2 Este 7 Nordeste 0 -- -- 43
2019-03-24 19:00:00 14.5 0 Calma 24 Oeste 0 -- -- 37
2019-03-24 18:00:00 16.1 12 Oeste 23 Sudoeste 0 -- -- 34
2019-03-24 17:00:00 16.3 14 Oeste 25 Oeste 0 -- -- 34
2019-03-24 16:00:00 17.8 17 Oeste 28 Oeste 0 -- -- 28
2019-03-24 15:00:00 18.3 17 Oeste 27 Sudoeste 0 -- -- 25
2019-03-24 14:00:00 18.4 8 Noroeste 24 Sudoeste 0 -- -- 25
2019-03-24 13:00:00 17.7 5 Norte 14 Oeste 0 -- -- 24
2019-03-24 12:00:00 16 6 Norte 16 Noroeste 0 -- -- 23
2019-03-24 11:00:00 14.1 4 Norte 9 Noroeste 0 -- -- 31
2019-03-24 10:00:00 10.9 0 Calma 5 Noroeste 0 -- -- 38
2019-03-24 09:00:00 3.4 0 Calma 4 Sudoeste 0 -- -- 65
2019-03-24 08:00:00 1.5 0 Calma 5 Este 0 -- -- 63
2019-03-24 07:00:00 1.1 0 Calma 4 Sudoeste 0 -- -- 60
2019-03-24 06:00:00 1.2 0 Calma 4 Este 0 -- -- 62
2019-03-24 05:00:00 1.7 0 Calma 4 Este 0 -- -- 62
2019-03-24 04:00:00 2.2 0 Calma 4 Este 0 -- -- 65
2019-03-24 03:00:00 3 0 Calma 5 Sur 0 -- -- 65
2019-03-24 02:00:00 3.6 0 Calma -- -- 0 -- -- 66
2019-03-24 01:00:00 4.1 0 Calma -- -- 0 -- -- 64
2019-03-24 00:00:00 4.6 0 Calma 4 Sudeste 0 -- -- 63
2019-03-23 23:00:00 5 0 Calma 3 Sudeste 0 -- -- 62
2019-03-23 22:00:00 5.8 0 Calma 6 Sudeste 0 -- -- 60
2019-03-23 21:00:00 6.9 0 Calma 6 Este 0 -- -- 57
2019-03-23 20:00:00 8.5 0 Calma 5 Sudeste 0 -- -- 53
2019-03-23 19:00:00 12.6 3 Sudoeste 18 Oeste 0 -- -- 42
2019-03-23 18:00:00 15.3 13 Oeste 25 Sudoeste 0 -- -- 37
2019-03-23 17:00:00 15.6 14 Oeste 25 Oeste 0 -- -- 36
2019-03-23 16:00:00 17.2 10 Oeste 23 Oeste 0 -- -- 29
2019-03-23 15:00:00 17.7 10 Sudoeste 22 Oeste 0 -- -- 28
2019-03-23 14:00:00 17.5 9 Noroeste 25 Nordeste 0 -- -- 30
2019-03-23 13:00:00 17.1 6 Norte 18 Noroeste 0 -- -- 28
2019-03-23 12:00:00 15.5 5 Norte 15 Nordeste 0 -- -- 27
2019-03-23 11:00:00 13.6 6 Oeste 14 Oeste 0 -- -- 31
2019-03-23 10:00:00 10.2 0 Calma 4 Nordeste 0 -- -- 46
2019-03-23 09:00:00 -- 0 Calma 3 Sudoeste 0 -- -- --
2019-03-23 08:00:00 1 0 Calma 4 Norte 0 -- -- 73
2019-03-23 07:00:00 1.2 0 Calma 3 Nordeste 0 -- -- 70
2019-03-23 06:00:00 1.3 0 Calma 4 Este 0 -- -- 72
2019-03-23 05:00:00 1.5 0 Calma 3 Sur 0 -- -- 74
2019-03-23 04:00:00 1.9 3 Este 5 Este 0 -- -- 78
2019-03-23 03:00:00 2.3 0 Calma 4 Sudeste 0 -- -- 78
2019-03-23 02:00:00 2.8 0 Calma 4 Este 0 -- -- 76
2019-03-23 01:00:00 3.1 0 Calma 4 Oeste 0 -- -- 77
2019-03-23 00:00:00 3.9 0 Calma 4 Oeste 0 -- -- 72
2019-03-22 23:00:00 4.7 0 Calma 7 Este 0 -- -- 69
2019-03-22 22:00:00 6 0 Calma 8 Sudeste 0 -- -- 64
2019-03-22 21:00:00 8.3 3 Sudeste 18 Sur 0 -- -- 57
2019-03-22 20:00:00 10.4 9 Sudoeste 23 Sudoeste 0 -- -- 50
2019-03-22 19:00:00 12.1 8 Oeste 21 Oeste 0 -- -- 44
2019-03-22 18:00:00 13.4 9 Oeste 22 Noroeste 0 -- -- 40
2019-03-22 17:00:00 14.3 13 Oeste 27 Oeste 0 -- -- 39
2019-03-22 16:00:00 14.1 12 Oeste 19 Oeste 0 -- -- 41
2019-03-22 15:00:00 13.7 8 Oeste 24 Sudoeste 0 -- -- 42
2019-03-22 14:00:00 15.7 10 Sudoeste 25 Oeste 0 -- -- 38
2019-03-22 13:00:00 14.5 8 Oeste 23 Oeste 0 -- -- 40
2019-03-22 12:00:00 13.3 6 Noroeste 14 Oeste 0 -- -- 45
2019-03-22 11:00:00 11.1 5 Noroeste 13 Noroeste 0 -- -- 44
2019-03-22 10:00:00 7.7 3 Noroeste 8 Noroeste 0 -- -- 51
2019-03-22 09:00:00 1.9 0 Calma 4 Este 0 -- -- 74
2019-03-22 08:00:00 -0.2 0 Calma 7 Este 0 -- -- 76
2019-03-22 07:00:00 -0.7 0 Calma 5 Sudoeste 0 -- -- 74
2019-03-22 06:00:00 -1 0 Calma 4 Oeste 0 -- -- 75
2019-03-22 05:00:00 -1.1 5 Este 7 Este 0 -- -- 73
2019-03-22 04:00:00 -0.4 0 Calma 8 Oeste 0 -- -- 70
2019-03-22 03:00:00 -0.2 0 Calma 7 Oeste 0 -- -- 69
2019-03-22 02:00:00 -0.2 0 Calma 6 Este 0 -- -- 67
2019-03-22 01:00:00 0.1 0 Calma 6 Noroeste 0 -- -- 65
2019-03-22 00:00:00 0.8 2 Sur 5 Sudoeste 0 -- -- 60
2019-03-21 23:00:00 1.8 0 Calma 5 Sudoeste 0 -- -- 56
2019-03-21 22:00:00 2.7 0 Calma 5 Oeste 0 -- -- 54
2019-03-21 21:00:00 3.4 0 Calma 7 Sur 0 -- -- 49
2019-03-21 20:00:00 6.3 4 Sur 15 Sur 0 -- -- 41
2019-03-21 19:00:00 8.4 5 Sudoeste 15 Sudoeste 0 -- -- 37
2019-03-21 18:00:00 10.7 11 Oeste 22 Oeste 0 -- -- 34
2019-03-21 17:00:00 11.9 12 Oeste 22 Oeste 0 -- -- 31
2019-03-21 16:00:00 11.9 18 Oeste 30 Noroeste 0 -- -- 32
2019-03-21 15:00:00 12.2 17 Oeste 33 Oeste 0 -- -- 31
2019-03-21 14:00:00 12 17 Oeste 26 Sudoeste 0 -- -- 31
2019-03-21 13:00:00 11.7 11 Sudoeste 20 Sudoeste 0 -- -- 28
2019-03-21 12:00:00 9.9 6 Nordeste 12 Oeste 0 -- -- 27
2019-03-21 11:00:00 7.6 5 Oeste 12 Oeste 0 -- -- 34
2019-03-21 10:00:00 4.1 3 Sudoeste 6 Sudoeste 0 -- -- 43
2019-03-21 09:00:00 -2.6 2 Sudeste 5 Este 0 -- -- 67
2019-03-21 08:00:00 -3.9 2 Sudoeste 5 Nordeste 0 -- -- 70
2019-03-21 07:00:00 -3.9 0 Calma 2 Sur 0 -- -- 69
2019-03-21 06:00:00 -3.6 0 Calma 4 Oeste 0 -- -- 70
2019-03-21 05:00:00 -3.3 0 Calma 5 Oeste 0 -- -- 70
2019-03-21 04:00:00 -3 0 Calma 4 Este 0 -- -- 70
2019-03-21 03:00:00 -2.9 0 Calma 5 Este 0 -- -- 72
2019-03-21 02:00:00 -2.7 2 Sudeste 6 Nordeste 0 -- -- 76
2019-03-21 01:00:00 -2.4 0 Calma 7 Nordeste 0 -- -- 76
2019-03-21 00:00:00 -1.9 0 Calma 5 Sudeste 0 -- -- 74
2019-03-20 23:00:00 -0.7 3 Sudeste 7 Este 0 -- -- 73
2019-03-20 22:00:00 0.9 0 Calma 10 Sur 0 -- -- 72
2019-03-20 21:00:00 3.7 6 Sur 16 Sudoeste 0 -- -- 68
2019-03-20 20:00:00 4.7 6 Sudoeste 19 Sudoeste 0 -- -- 60
2019-03-20 19:00:00 6.9 4 Sudoeste 19 Oeste 0 -- -- 46
2019-03-20 18:00:00 9.2 10 Noroeste 24 Oeste 0 -- -- 42
2019-03-20 17:00:00 10.3 16 Oeste 28 Oeste 0 -- -- 40
2019-03-20 16:00:00 11 16 Oeste 30 Sudoeste 0 -- -- 35
2019-03-20 15:00:00 11.6 17 Sudoeste 25 Sudoeste 0 -- -- 34
2019-03-20 14:00:00 11.8 8 Noroeste 23 Oeste 0 -- -- 25
2019-03-20 13:00:00 10.3 6 Norte 19 Norte 0 -- -- 26
2019-03-20 12:00:00 8.6 6 Noroeste 14 Noroeste 0 -- -- 32
2019-03-20 11:00:00 6.9 4 Oeste 12 Sudeste 0 -- -- 37
2019-03-20 10:00:00 4 4 Sudoeste 8 Sudoeste 0 -- -- 48
2019-03-20 09:00:00 -2.9 0 Calma 5 Este 0 -- -- 76
2019-03-20 08:00:00 -3.9 2 Este 7 Este 0 -- -- 78
2019-03-20 07:00:00 -3.9 3 Sudoeste 5 Oeste 0 -- -- 78
2019-03-20 06:00:00 -3.8 0 Calma 2 Sudeste 0 -- -- 79
2019-03-20 05:00:00 -4 5 Sudeste 10 Nordeste 0 -- -- 80
2019-03-20 04:00:00 -3.3 2 Sudoeste 6 Este 0 -- -- 78
2019-03-20 03:00:00 -3.3 3 Sudoeste 9 Nordeste 0 -- -- 77
2019-03-20 02:00:00 -2.9 2 Sudoeste 12 Este 0 -- -- 77
2019-03-20 01:00:00 -2.4 0 Calma 6 Oeste 0 -- -- 75
2019-03-20 00:00:00 -1.8 0 Calma 6 Nordeste 0 -- -- 71
2019-03-19 23:00:00 -0.8 0 Calma 8 Nordeste 0 -- -- 65
2019-03-19 22:00:00 1.2 4 Sudeste 23 Nordeste 0 -- -- 57
2019-03-19 21:00:00 2.7 12 Nordeste 24 Nordeste 0 -- -- 53
2019-03-19 20:00:00 3.5 6 Sur 24 Nordeste 0 -- -- 49
2019-03-19 19:00:00 5.4 9 Nordeste 26 Norte 0 -- -- 40
2019-03-19 18:00:00 7.5 10 Nordeste 26 Norte 0 -- -- 36
2019-03-19 17:00:00 8 8 Nordeste 22 Norte 0 -- -- 34
2019-03-19 16:00:00 7.5 7 Nordeste 30 Norte 0 -- -- 37
2019-03-19 15:00:00 7.1 10 Norte 26 Norte 0 -- -- 37
2019-03-19 14:00:00 7.6 5 Norte 27 Nordeste 0 -- -- 38
2019-03-19 13:00:00 7.1 8 Norte 26 Nordeste 0 -- -- 39
2019-03-19 12:00:00 7 6 Norte 21 Nordeste 0 -- -- 38
2019-03-19 11:00:00 5.9 8 Nordeste 17 Norte 0 -- -- 43
2019-03-19 10:00:00 5.7 6 Nordeste 17 Norte 0 -- -- 47
2019-03-19 09:00:00 0.6 3 Sur 7 Sudeste 0 -- -- 68
2019-03-19 08:00:00 -0.2 0 Calma 6 Este 0 -- -- 70
2019-03-19 07:00:00 -0.9 4 Este 9 Este 0 -- -- 68
2019-03-19 06:00:00 0.3 4 Sur 9 Este 0 -- -- 62
2019-03-19 05:00:00 1.9 3 Este 10 Este 0 -- -- 58
2019-03-19 04:00:00 1.5 3 Sudeste 6 Sudeste 0 -- -- 58
2019-03-19 03:00:00 1.7 5 Sur 7 Sur 0 -- -- 53
2019-03-19 02:00:00 1.3 0 Calma 5 Noroeste 0 -- -- 55
2019-03-19 01:00:00 1.2 0 Calma 4 Nordeste 0 -- -- 52
2019-03-19 00:00:00 1.9 2 Nordeste 10 Este 0 -- -- 45